sensor_id;sensor_type;location;lat;lon;timestamp;temperature;humidity
66035;HTU21D;52805;51.074;5.842;2023-05-23T00:01:35;17.33;118.99
66035;HTU21D;52805;51.074;5.842;2023-05-23T00:04:03;17.33;118.99
66035;HTU21D;52805;51.074;5.842;2023-05-23T00:06:29;17.32;118.99
66035;HTU21D;52805;51.074;5.842;2023-05-23T00:08:55;17.30;118.99
66035;HTU21D;52805;51.074;5.842;2023-05-23T00:11:22;17.30;118.99
66035;HTU21D;52805;51.074;5.842;2023-05-23T00:13:55;17.31;118.99
66035;HTU21D;52805;51.074;5.842;2023-05-23T00:16:21;17.29;118.99
66035;HTU21D;52805;51.074;5.842;2023-05-23T00:18:48;17.26;118.99
66035;HTU21D;52805;51.074;5.842;2023-05-23T00:21:15;17.24;118.99
66035;HTU21D;52805;51.074;5.842;2023-05-23T00:23:42;17.17;118.99
66035;HTU21D;52805;51.074;5.842;2023-05-23T00:26:08;17.13;118.99
66035;HTU21D;52805;51.074;5.842;2023-05-23T00:28:36;17.10;118.99
66035;HTU21D;52805;51.074;5.842;2023-05-23T00:31:02;17.10;118.99
66035;HTU21D;52805;51.074;5.842;2023-05-23T00:33:28;17.08;118.99
66035;HTU21D;52805;51.074;5.842;2023-05-23T00:35:58;17.10;118.99
66035;HTU21D;52805;51.074;5.842;2023-05-23T00:38:24;17.08;118.99
66035;HTU21D;52805;51.074;5.842;2023-05-23T00:40:51;17.07;118.99
66035;HTU21D;52805;51.074;5.842;2023-05-23T00:43:17;17.01;118.99
66035;HTU21D;52805;51.074;5.842;2023-05-23T00:45:44;16.98;118.99
66035;HTU21D;52805;51.074;5.842;2023-05-23T00:48:10;16.94;118.99
66035;HTU21D;52805;51.074;5.842;2023-05-23T00:50:37;16.91;118.99
66035;HTU21D;52805;51.074;5.842;2023-05-23T00:53:05;16.90;118.99
66035;HTU21D;52805;51.074;5.842;2023-05-23T00:55:34;16.89;118.99
66035;HTU21D;52805;51.074;5.842;2023-05-23T00:58:00;16.91;118.99
66035;HTU21D;52805;51.074;5.842;2023-05-23T01:00:26;16.81;118.99
66035;HTU21D;52805;51.074;5.842;2023-05-23T01:02:53;16.77;118.99
66035;HTU21D;52805;51.074;5.842;2023-05-23T01:05:20;16.74;118.99
66035;HTU21D;52805;51.074;5.842;2023-05-23T01:07:49;16.73;118.99
66035;HTU21D;52805;51.074;5.842;2023-05-23T01:10:19;16.65;118.99
66035;HTU21D;52805;51.074;5.842;2023-05-23T01:13:00;16.59;118.99
66035;HTU21D;52805;51.074;5.842;2023-05-23T01:15:39;16.57;118.99
66035;HTU21D;52805;51.074;5.842;2023-05-23T01:18:25;16.55;118.99
66035;HTU21D;52805;51.074;5.842;2023-05-23T01:21:08;16.57;118.99
66035;HTU21D;52805;51.074;5.842;2023-05-23T01:29:33;16.42;118.99
66035;HTU21D;52805;51.074;5.842;2023-05-23T01:32:01;16.40;118.99
66035;HTU21D;52805;51.074;5.842;2023-05-23T01:34:30;16.37;118.99
66035;HTU21D;52805;51.074;5.842;2023-05-23T01:36:57;16.30;118.99
66035;HTU21D;52805;51.074;5.842;2023-05-23T01:39:24;16.31;118.99
66035;HTU21D;52805;51.074;5.842;2023-05-23T01:41:52;16.32;118.99
66035;HTU21D;52805;51.074;5.842;2023-05-23T01:44:19;16.29;118.99
66035;HTU21D;52805;51.074;5.842;2023-05-23T01:46:47;16.18;118.99
66035;HTU21D;52805;51.074;5.842;2023-05-23T01:49:15;16.21;118.99
66035;HTU21D;52805;51.074;5.842;2023-05-23T01:51:41;16.16;118.99
66035;HTU21D;52805;51.074;5.842;2023-05-23T01:54:08;16.22;118.99
66035;HTU21D;52805;51.074;5.842;2023-05-23T01:56:34;16.27;118.99
66035;HTU21D;52805;51.074;5.842;2023-05-23T01:59:01;16.33;118.99
66035;HTU21D;52805;51.074;5.842;2023-05-23T02:01:28;16.37;118.99
66035;HTU21D;52805;51.074;5.842;2023-05-23T02:03:54;16.36;118.99
66035;HTU21D;52805;51.074;5.842;2023-05-23T02:06:20;16.36;118.99
66035;HTU21D;52805;51.074;5.842;2023-05-23T02:08:46;16.35;118.99
66035;HTU21D;52805;51.074;5.842;2023-05-23T02:11:12;16.33;118.99
66035;HTU21D;52805;51.074;5.842;2023-05-23T02:13:38;16.35;118.99
66035;HTU21D;52805;51.074;5.842;2023-05-23T02:16:04;16.33;118.99
66035;HTU21D;52805;51.074;5.842;2023-05-23T02:18:30;16.35;118.99
66035;HTU21D;52805;51.074;5.842;2023-05-23T02:20:55;16.43;118.99
66035;HTU21D;52805;51.074;5.842;2023-05-23T02:23:21;16.45;118.99
66035;HTU21D;52805;51.074;5.842;2023-05-23T02:25:47;16.46;118.99
66035;HTU21D;52805;51.074;5.842;2023-05-23T02:28:13;16.43;118.99
66035;HTU21D;52805;51.074;5.842;2023-05-23T02:30:39;16.41;118.99
66035;HTU21D;52805;51.074;5.842;2023-05-23T02:33:05;16.42;118.99
66035;HTU21D;52805;51.074;5.842;2023-05-23T02:35:32;16.43;118.99
66035;HTU21D;52805;51.074;5.842;2023-05-23T02:37:59;16.43;118.99
66035;HTU21D;52805;51.074;5.842;2023-05-23T02:40:25;16.41;118.99
66035;HTU21D;52805;51.074;5.842;2023-05-23T02:42:51;16.36;118.99
66035;HTU21D;52805;51.074;5.842;2023-05-23T02:45:17;16.39;118.99
66035;HTU21D;52805;51.074;5.842;2023-05-23T02:47:42;16.39;118.99
66035;HTU21D;52805;51.074;5.842;2023-05-23T02:50:08;16.37;118.99
66035;HTU21D;52805;51.074;5.842;2023-05-23T02:52:34;16.35;118.99
66035;HTU21D;52805;51.074;5.842;2023-05-23T02:55:00;16.30;118.99
66035;HTU21D;52805;51.074;5.842;2023-05-23T02:57:27;16.31;118.99
66035;HTU21D;52805;51.074;5.842;2023-05-23T02:59:53;16.31;118.99
66035;HTU21D;52805;51.074;5.842;2023-05-23T03:02:20;16.22;118.99
66035;HTU21D;52805;51.074;5.842;2023-05-23T03:04:46;16.17;118.99
66035;HTU21D;52805;51.074;5.842;2023-05-23T03:07:12;16.14;118.99
66035;HTU21D;52805;51.074;5.842;2023-05-23T03:09:39;16.12;118.99
66035;HTU21D;52805;51.074;5.842;2023-05-23T03:12:05;16.18;118.99
66035;HTU21D;52805;51.074;5.842;2023-05-23T03:14:31;16.13;118.99
66035;HTU21D;52805;51.074;5.842;2023-05-23T03:16:57;16.04;118.99
66035;HTU21D;52805;51.074;5.842;2023-05-23T03:19:22;15.89;118.99
66035;HTU21D;52805;51.074;5.842;2023-05-23T03:21:49;15.88;118.99
66035;HTU21D;52805;51.074;5.842;2023-05-23T03:24:17;15.87;118.99
66035;HTU21D;52805;51.074;5.842;2023-05-23T03:26:43;15.85;118.99
66035;HTU21D;52805;51.074;5.842;2023-05-23T03:29:10;15.82;118.99
66035;HTU21D;52805;51.074;5.842;2023-05-23T03:31:36;15.81;118.99
66035;HTU21D;52805;51.074;5.842;2023-05-23T03:34:03;15.88;118.99
66035;HTU21D;52805;51.074;5.842;2023-05-23T03:36:32;15.88;118.99
66035;HTU21D;52805;51.074;5.842;2023-05-23T03:38:58;15.90;118.99
66035;HTU21D;52805;51.074;5.842;2023-05-23T03:41:24;15.91;118.99
66035;HTU21D;52805;51.074;5.842;2023-05-23T03:43:51;15.97;118.99
66035;HTU21D;52805;51.074;5.842;2023-05-23T03:46:16;15.98;118.99
66035;HTU21D;52805;51.074;5.842;2023-05-23T03:48:42;15.93;118.99
66035;HTU21D;52805;51.074;5.842;2023-05-23T03:51:09;15.96;118.99
66035;HTU21D;52805;51.074;5.842;2023-05-23T03:53:35;15.97;118.99
66035;HTU21D;52805;51.074;5.842;2023-05-23T03:56:01;15.97;118.99
66035;HTU21D;52805;51.074;5.842;2023-05-23T03:58:27;16.03;118.99
66035;HTU21D;52805;51.074;5.842;2023-05-23T04:00:58;16.05;118.99
66035;HTU21D;52805;51.074;5.842;2023-05-23T04:03:24;16.06;118.99
66035;HTU21D;52805;51.074;5.842;2023-05-23T04:05:50;16.03;118.99
66035;HTU21D;52805;51.074;5.842;2023-05-23T04:08:16;16.01;118.99
66035;HTU21D;52805;51.074;5.842;2023-05-23T04:10:47;16.03;118.99
66035;HTU21D;52805;51.074;5.842;2023-05-23T04:13:13;16.06;118.99
66035;HTU21D;52805;51.074;5.842;2023-05-23T04:15:39;16.06;118.99
66035;HTU21D;52805;51.074;5.842;2023-05-23T04:18:07;16.07;118.99
66035;HTU21D;52805;51.074;5.842;2023-05-23T04:20:34;16.06;118.99
66035;HTU21D;52805;51.074;5.842;2023-05-23T04:23:00;16.12;118.99
66035;HTU21D;52805;51.074;5.842;2023-05-23T04:25:26;16.17;118.99
66035;HTU21D;52805;51.074;5.842;2023-05-23T04:28:05;16.14;118.99
66035;HTU21D;52805;51.074;5.842;2023-05-23T04:30:31;16.13;118.99
66035;HTU21D;52805;51.074;5.842;2023-05-23T04:32:57;16.16;118.99
66035;HTU21D;52805;51.074;5.842;2023-05-23T04:35:26;16.14;118.99
66035;HTU21D;52805;51.074;5.842;2023-05-23T04:37:58;16.08;118.99
66035;HTU21D;52805;51.074;5.842;2023-05-23T04:40:25;16.04;118.99
66035;HTU21D;52805;51.074;5.842;2023-05-23T04:43:09;16.06;118.99
66035;HTU21D;52805;51.074;5.842;2023-05-23T04:45:54;16.08;118.99
66035;HTU21D;52805;51.074;5.842;2023-05-23T04:48:41;16.11;118.99
66035;HTU21D;52805;51.074;5.842;2023-05-23T04:51:09;16.11;118.99
66035;HTU21D;52805;51.074;5.842;2023-05-23T04:53:41;16.04;118.99
66035;HTU21D;52805;51.074;5.842;2023-05-23T04:56:09;16.05;118.99
66035;HTU21D;52805;51.074;5.842;2023-05-23T04:58:36;15.96;118.99
66035;HTU21D;52805;51.074;5.842;2023-05-23T05:01:06;15.89;118.99
66035;HTU21D;52805;51.074;5.842;2023-05-23T05:03:34;15.88;118.99
66035;HTU21D;52805;51.074;5.842;2023-05-23T05:06:01;15.90;118.99
66035;HTU21D;52805;51.074;5.842;2023-05-23T05:08:27;15.88;118.99
66035;HTU21D;52805;51.074;5.842;2023-05-23T05:10:54;15.89;118.99
66035;HTU21D;52805;51.074;5.842;2023-05-23T05:13:20;15.90;118.99
66035;HTU21D;52805;51.074;5.842;2023-05-23T05:15:51;15.83;118.99
66035;HTU21D;52805;51.074;5.842;2023-05-23T05:18:18;15.85;118.99
66035;HTU21D;52805;51.074;5.842;2023-05-23T05:20:44;15.87;118.99
66035;HTU21D;52805;51.074;5.842;2023-05-23T05:23:10;15.87;118.99
66035;HTU21D;52805;51.074;5.842;2023-05-23T05:25:36;15.86;118.99
66035;HTU21D;52805;51.074;5.842;2023-05-23T05:28:03;15.89;118.99
66035;HTU21D;52805;51.074;5.842;2023-05-23T05:30:35;15.82;118.99
66035;HTU21D;52805;51.074;5.842;2023-05-23T05:33:02;15.85;118.99
66035;HTU21D;52805;51.074;5.842;2023-05-23T05:35:30;15.87;118.99
66035;HTU21D;52805;51.074;5.842;2023-05-23T05:37:56;15.88;118.99
66035;HTU21D;52805;51.074;5.842;2023-05-23T05:40:22;15.93;118.99
66035;HTU21D;52805;51.074;5.842;2023-05-23T05:42:49;16.00;118.99
66035;HTU21D;52805;51.074;5.842;2023-05-23T05:45:15;16.01;118.99
66035;HTU21D;52805;51.074;5.842;2023-05-23T05:47:42;16.02;118.99
66035;HTU21D;52805;51.074;5.842;2023-05-23T05:50:08;15.97;118.99
66035;HTU21D;52805;51.074;5.842;2023-05-23T05:52:36;15.87;118.99
66035;HTU21D;52805;51.074;5.842;2023-05-23T05:55:09;15.72;118.99
66035;HTU21D;52805;51.074;5.842;2023-05-23T05:57:41;15.73;118.99
66035;HTU21D;52805;51.074;5.842;2023-05-23T06:00:12;15.80;118.99
66035;HTU21D;52805;51.074;5.842;2023-05-23T06:02:45;15.81;118.99
66035;HTU21D;52805;51.074;5.842;2023-05-23T06:05:13;15.84;118.99
66035;HTU21D;52805;51.074;5.842;2023-05-23T06:07:42;15.87;118.99
66035;HTU21D;52805;51.074;5.842;2023-05-23T06:10:08;15.88;118.99
66035;HTU21D;52805;51.074;5.842;2023-05-23T06:12:37;15.90;118.99
66035;HTU21D;52805;51.074;5.842;2023-05-23T06:15:04;15.87;118.99
66035;HTU21D;52805;51.074;5.842;2023-05-23T06:17:30;15.90;118.99
66035;HTU21D;52805;51.074;5.842;2023-05-23T06:19:56;15.90;118.99
66035;HTU21D;52805;51.074;5.842;2023-05-23T06:22:21;15.89;118.99
66035;HTU21D;52805;51.074;5.842;2023-05-23T06:24:47;15.91;118.99
66035;HTU21D;52805;51.074;5.842;2023-05-23T06:27:13;15.92;118.99
66035;HTU21D;52805;51.074;5.842;2023-05-23T06:29:39;15.96;118.99
66035;HTU21D;52805;51.074;5.842;2023-05-23T06:32:05;16.02;118.99
66035;HTU21D;52805;51.074;5.842;2023-05-23T06:34:31;16.10;118.99
66035;HTU21D;52805;51.074;5.842;2023-05-23T06:36:56;16.18;118.99
66035;HTU21D;52805;51.074;5.842;2023-05-23T06:39:23;16.22;118.99
66035;HTU21D;52805;51.074;5.842;2023-05-23T06:41:48;16.22;118.99
66035;HTU21D;52805;51.074;5.842;2023-05-23T06:44:14;16.21;118.99
66035;HTU21D;52805;51.074;5.842;2023-05-23T06:46:46;16.24;118.99
66035;HTU21D;52805;51.074;5.842;2023-05-23T06:49:14;16.29;118.99
66035;HTU21D;52805;51.074;5.842;2023-05-23T06:51:41;16.22;118.99
66035;HTU21D;52805;51.074;5.842;2023-05-23T06:54:06;16.24;118.99
66035;HTU21D;52805;51.074;5.842;2023-05-23T06:56:32;16.21;118.99
66035;HTU21D;52805;51.074;5.842;2023-05-23T06:58:58;16.20;118.99
66035;HTU21D;52805;51.074;5.842;2023-05-23T07:01:25;16.21;118.99
66035;HTU21D;52805;51.074;5.842;2023-05-23T07:03:51;16.08;118.99
66035;HTU21D;52805;51.074;5.842;2023-05-23T07:06:16;16.02;118.99
66035;HTU21D;52805;51.074;5.842;2023-05-23T07:08:42;15.88;118.99
66035;HTU21D;52805;51.074;5.842;2023-05-23T07:11:09;15.70;118.99
66035;HTU21D;52805;51.074;5.842;2023-05-23T07:13:40;15.61;118.99
66035;HTU21D;52805;51.074;5.842;2023-05-23T07:16:09;15.57;118.99
66035;HTU21D;52805;51.074;5.842;2023-05-23T07:18:42;15.49;118.99
66035;HTU21D;52805;51.074;5.842;2023-05-23T07:21:08;15.39;118.99
66035;HTU21D;52805;51.074;5.842;2023-05-23T07:23:35;15.32;118.99
66035;HTU21D;52805;51.074;5.842;2023-05-23T07:26:01;15.27;118.99
66035;HTU21D;52805;51.074;5.842;2023-05-23T07:28:31;15.30;118.99
66035;HTU21D;52805;51.074;5.842;2023-05-23T07:30:58;15.39;118.99
66035;HTU21D;52805;51.074;5.842;2023-05-23T07:33:24;15.43;118.99
66035;HTU21D;52805;51.074;5.842;2023-05-23T07:35:50;15.42;118.99
66035;HTU21D;52805;51.074;5.842;2023-05-23T07:38:16;15.33;118.99
66035;HTU21D;52805;51.074;5.842;2023-05-23T07:40:42;15.30;118.99
66035;HTU21D;52805;51.074;5.842;2023-05-23T07:43:07;15.33;118.99
66035;HTU21D;52805;51.074;5.842;2023-05-23T07:45:33;15.28;118.99
66035;HTU21D;52805;51.074;5.842;2023-05-23T07:47:59;15.28;118.99
66035;HTU21D;52805;51.074;5.842;2023-05-23T07:50:25;15.27;118.99
66035;HTU21D;52805;51.074;5.842;2023-05-23T07:52:53;15.30;118.99
66035;HTU21D;52805;51.074;5.842;2023-05-23T07:55:25;15.24;118.99
66035;HTU21D;52805;51.074;5.842;2023-05-23T07:57:53;15.23;118.99
66035;HTU21D;52805;51.074;5.842;2023-05-23T08:00:21;15.19;118.99
66035;HTU21D;52805;51.074;5.842;2023-05-23T08:02:53;15.18;118.99
66035;HTU21D;52805;51.074;5.842;2023-05-23T08:05:24;15.25;118.99
66035;HTU21D;52805;51.074;5.842;2023-05-23T08:07:53;15.39;118.99
66035;HTU21D;52805;51.074;5.842;2023-05-23T08:10:19;15.49;118.99
66035;HTU21D;52805;51.074;5.842;2023-05-23T08:12:46;15.71;118.99
66035;HTU21D;52805;51.074;5.842;2023-05-23T08:15:14;15.80;118.99
66035;HTU21D;52805;51.074;5.842;2023-05-23T08:17:44;15.90;118.99
66035;HTU21D;52805;51.074;5.842;2023-05-23T08:20:10;15.99;118.99
66035;HTU21D;52805;51.074;5.842;2023-05-23T08:22:36;15.99;118.99
66035;HTU21D;52805;51.074;5.842;2023-05-23T08:25:04;16.03;118.99
66035;HTU21D;52805;51.074;5.842;2023-05-23T08:27:31;16.01;118.99
66035;HTU21D;52805;51.074;5.842;2023-05-23T08:30:04;15.99;118.99
66035;HTU21D;52805;51.074;5.842;2023-05-23T08:32:32;15.99;118.99
66035;HTU21D;52805;51.074;5.842;2023-05-23T08:34:59;15.86;118.99
66035;HTU21D;52805;51.074;5.842;2023-05-23T08:37:25;15.84;118.99
66035;HTU21D;52805;51.074;5.842;2023-05-23T08:39:51;15.76;118.99
66035;HTU21D;52805;51.074;5.842;2023-05-23T08:42:31;15.67;118.99
66035;HTU21D;52805;51.074;5.842;2023-05-23T08:44:57;15.59;118.99
66035;HTU21D;52805;51.074;5.842;2023-05-23T08:47:23;15.48;118.99
66035;HTU21D;52805;51.074;5.842;2023-05-23T08:50:01;15.45;118.99
66035;HTU21D;52805;51.074;5.842;2023-05-23T08:52:32;15.47;118.99
66035;HTU21D;52805;51.074;5.842;2023-05-23T08:55:00;15.41;118.99
66035;HTU21D;52805;51.074;5.842;2023-05-23T08:57:27;15.45;118.99
66035;HTU21D;52805;51.074;5.842;2023-05-23T09:00:00;15.49;118.99
66035;HTU21D;52805;51.074;5.842;2023-05-23T09:02:27;15.46;118.99
66035;HTU21D;52805;51.074;5.842;2023-05-23T09:05:04;15.49;118.99
66035;HTU21D;52805;51.074;5.842;2023-05-23T09:07:30;15.67;118.99
66035;HTU21D;52805;51.074;5.842;2023-05-23T09:09:57;15.66;118.99
66035;HTU21D;52805;51.074;5.842;2023-05-23T09:12:22;15.84;118.99
66035;HTU21D;52805;51.074;5.842;2023-05-23T09:14:49;15.95;118.99
66035;HTU21D;52805;51.074;5.842;2023-05-23T09:17:18;16.29;118.99
66035;HTU21D;52805;51.074;5.842;2023-05-23T09:19:45;16.73;118.99
66035;HTU21D;52805;51.074;5.842;2023-05-23T09:22:34;16.80;118.99
66035;HTU21D;52805;51.074;5.842;2023-05-23T09:25:06;16.85;118.99
66035;HTU21D;52805;51.074;5.842;2023-05-23T09:27:32;16.85;118.99
66035;HTU21D;52805;51.074;5.842;2023-05-23T09:30:08;16.78;118.99
66035;HTU21D;52805;51.074;5.842;2023-05-23T09:32:35;16.84;118.99
66035;HTU21D;52805;51.074;5.842;2023-05-23T09:35:05;16.86;118.99
66035;HTU21D;52805;51.074;5.842;2023-05-23T09:37:38;16.94;118.99
66035;HTU21D;52805;51.074;5.842;2023-05-23T09:40:07;17.18;118.99
66035;HTU21D;52805;51.074;5.842;2023-05-23T09:42:35;17.45;118.99
66035;HTU21D;52805;51.074;5.842;2023-05-23T09:45:02;17.53;118.99
66035;HTU21D;52805;51.074;5.842;2023-05-23T09:47:28;17.62;118.99
66035;HTU21D;52805;51.074;5.842;2023-05-23T09:49:54;17.64;118.99
66035;HTU21D;52805;51.074;5.842;2023-05-23T09:52:20;17.55;118.99
66035;HTU21D;52805;51.074;5.842;2023-05-23T09:54:48;17.55;118.99
66035;HTU21D;52805;51.074;5.842;2023-05-23T09:57:15;17.53;118.99
66035;HTU21D;52805;51.074;5.842;2023-05-23T09:59:52;17.56;118.99
66035;HTU21D;52805;51.074;5.842;2023-05-23T10:02:52;17.52;118.99
66035;HTU21D;52805;51.074;5.842;2023-05-23T10:05:37;17.50;118.99
66035;HTU21D;52805;51.074;5.842;2023-05-23T10:08:08;17.43;118.99
66035;HTU21D;52805;51.074;5.842;2023-05-23T10:13:25;17.25;118.99
66035;HTU21D;52805;51.074;5.842;2023-05-23T10:15:59;17.19;118.99
66035;HTU21D;52805;51.074;5.842;2023-05-23T10:18:37;17.18;118.99
66035;HTU21D;52805;51.074;5.842;2023-05-23T10:21:10;17.14;118.99
66035;HTU21D;52805;51.074;5.842;2023-05-23T10:23:37;17.09;118.99
66035;HTU21D;52805;51.074;5.842;2023-05-23T10:26:04;17.08;118.99
66035;HTU21D;52805;51.074;5.842;2023-05-23T10:28:31;17.14;118.99
66035;HTU21D;52805;51.074;5.842;2023-05-23T10:30:58;17.18;118.99
66035;HTU21D;52805;51.074;5.842;2023-05-23T10:33:26;17.23;118.99
66035;HTU21D;52805;51.074;5.842;2023-05-23T10:36:07;17.21;118.99
66035;HTU21D;52805;51.074;5.842;2023-05-23T10:41:44;17.38;118.99
66035;HTU21D;52805;51.074;5.842;2023-05-23T10:47:00;17.50;118.99
66035;HTU21D;52805;51.074;5.842;2023-05-23T10:49:51;17.63;118.99
66035;HTU21D;52805;51.074;5.842;2023-05-23T10:52:18;17.76;118.99
66035;HTU21D;52805;51.074;5.842;2023-05-23T10:54:51;17.90;118.99
66035;HTU21D;52805;51.074;5.842;2023-05-23T10:57:20;18.09;118.99
66035;HTU21D;52805;51.074;5.842;2023-05-23T10:59:49;18.15;118.99
66035;HTU21D;52805;51.074;5.842;2023-05-23T11:02:18;18.20;118.99
66035;HTU21D;52805;51.074;5.842;2023-05-23T11:04:44;18.21;118.99
66035;HTU21D;52805;51.074;5.842;2023-05-23T11:07:29;18.15;118.99
66035;HTU21D;52805;51.074;5.842;2023-05-23T11:10:12;18.04;118.99
66035;HTU21D;52805;51.074;5.842;2023-05-23T11:12:43;18.10;118.99
66035;HTU21D;52805;51.074;5.842;2023-05-23T11:15:19;18.22;118.99
66035;HTU21D;52805;51.074;5.842;2023-05-23T11:17:53;18.25;118.99
66035;HTU21D;52805;51.074;5.842;2023-05-23T11:20:26;18.47;118.99
66035;HTU21D;52805;51.074;5.842;2023-05-23T11:22:58;18.66;118.99
66035;HTU21D;52805;51.074;5.842;2023-05-23T11:25:43;18.72;118.99
66035;HTU21D;52805;51.074;5.842;2023-05-23T11:28:10;18.65;118.99
66035;HTU21D;52805;51.074;5.842;2023-05-23T11:30:37;18.65;118.99
66035;HTU21D;52805;51.074;5.842;2023-05-23T11:33:08;18.58;118.99
66035;HTU21D;52805;51.074;5.842;2023-05-23T11:35:42;18.58;118.99
66035;HTU21D;52805;51.074;5.842;2023-05-23T11:38:09;18.68;118.99
66035;HTU21D;52805;51.074;5.842;2023-05-23T11:40:36;18.74;118.99
66035;HTU21D;52805;51.074;5.842;2023-05-23T11:43:04;18.77;118.99
66035;HTU21D;52805;51.074;5.842;2023-05-23T11:45:32;18.77;118.99
66035;HTU21D;52805;51.074;5.842;2023-05-23T11:48:07;18.83;118.99
66035;HTU21D;52805;51.074;5.842;2023-05-23T11:50:34;18.85;118.99
66035;HTU21D;52805;51.074;5.842;2023-05-23T11:53:07;18.91;118.99
66035;HTU21D;52805;51.074;5.842;2023-05-23T11:55:33;19.01;118.99
66035;HTU21D;52805;51.074;5.842;2023-05-23T11:57:59;19.12;118.99
66035;HTU21D;52805;51.074;5.842;2023-05-23T12:00:25;18.98;118.99
66035;HTU21D;52805;51.074;5.842;2023-05-23T12:02:50;19.03;118.99
66035;HTU21D;52805;51.074;5.842;2023-05-23T12:05:16;19.15;118.99
66035;HTU21D;52805;51.074;5.842;2023-05-23T12:07:44;19.10;118.99
66035;HTU21D;52805;51.074;5.842;2023-05-23T12:10:16;19.05;118.99
66035;HTU21D;52805;51.074;5.842;2023-05-23T12:12:43;19.08;118.99
66035;HTU21D;52805;51.074;5.842;2023-05-23T12:15:10;19.09;118.99
66035;HTU21D;52805;51.074;5.842;2023-05-23T12:17:36;19.22;118.99
66035;HTU21D;52805;51.074;5.842;2023-05-23T12:20:07;19.44;118.99
66035;HTU21D;52805;51.074;5.842;2023-05-23T12:22:33;19.61;118.99
66035;HTU21D;52805;51.074;5.842;2023-05-23T12:24:59;19.74;118.99
66035;HTU21D;52805;51.074;5.842;2023-05-23T12:27:30;19.94;118.99
66035;HTU21D;52805;51.074;5.842;2023-05-23T12:30:15;20.09;118.99
66035;HTU21D;52805;51.074;5.842;2023-05-23T12:32:43;20.16;118.99
66035;HTU21D;52805;51.074;5.842;2023-05-23T12:35:11;20.26;118.99
66035;HTU21D;52805;51.074;5.842;2023-05-23T12:37:42;20.33;118.99
66035;HTU21D;52805;51.074;5.842;2023-05-23T12:40:18;20.32;118.99
66035;HTU21D;52805;51.074;5.842;2023-05-23T12:45:22;19.90;118.99
66035;HTU21D;52805;51.074;5.842;2023-05-23T12:47:48;19.81;118.99
66035;HTU21D;52805;51.074;5.842;2023-05-23T12:50:14;19.84;118.99
66035;HTU21D;52805;51.074;5.842;2023-05-23T12:52:39;20.03;118.99
66035;HTU21D;52805;51.074;5.842;2023-05-23T12:55:06;20.24;118.99
66035;HTU21D;52805;51.074;5.842;2023-05-23T12:57:33;20.53;118.99
66035;HTU21D;52805;51.074;5.842;2023-05-23T13:00:00;20.73;118.99
66035;HTU21D;52805;51.074;5.842;2023-05-23T13:02:28;20.87;118.99
66035;HTU21D;52805;51.074;5.842;2023-05-23T13:04:54;21.11;118.99
66035;HTU21D;52805;51.074;5.842;2023-05-23T13:07:19;21.34;118.99
66035;HTU21D;52805;51.074;5.842;2023-05-23T13:09:45;21.50;104.76
66035;HTU21D;52805;51.074;5.842;2023-05-23T13:12:11;21.62;118.99
66035;HTU21D;52805;51.074;5.842;2023-05-23T13:14:37;21.73;104.64
66035;HTU21D;52805;51.074;5.842;2023-05-23T13:17:03;21.62;113.19
66035;HTU21D;52805;51.074;5.842;2023-05-23T13:19:28;21.55;112.11
66035;HTU21D;52805;51.074;5.842;2023-05-23T13:21:54;21.69;111.12
66035;HTU21D;52805;51.074;5.842;2023-05-23T13:24:20;21.70;90.22
66035;HTU21D;52805;51.074;5.842;2023-05-23T13:26:46;21.60;107.27
66035;HTU21D;52805;51.074;5.842;2023-05-23T13:29:11;21.51;108.64
66035;HTU21D;52805;51.074;5.842;2023-05-23T13:31:37;21.49;113.78
66035;HTU21D;52805;51.074;5.842;2023-05-23T13:34:03;21.54;111.59
66035;HTU21D;52805;51.074;5.842;2023-05-23T13:36:29;21.45;110.26
66035;HTU21D;52805;51.074;5.842;2023-05-23T13:38:55;21.38;112.08
66035;HTU21D;52805;51.074;5.842;2023-05-23T13:41:20;21.36;109.17
66035;HTU21D;52805;51.074;5.842;2023-05-23T13:43:47;21.33;108.09
66035;HTU21D;52805;51.074;5.842;2023-05-23T13:46:13;21.44;109.14
66035;HTU21D;52805;51.074;5.842;2023-05-23T13:48:39;21.50;96.33
66035;HTU21D;52805;51.074;5.842;2023-05-23T13:51:05;21.32;100.16
66035;HTU21D;52805;51.074;5.842;2023-05-23T13:53:30;21.21;99.53
66035;HTU21D;52805;51.074;5.842;2023-05-23T13:55:56;21.13;100.34
66035;HTU21D;52805;51.074;5.842;2023-05-23T13:58:22;21.22;103.44
66035;HTU21D;52805;51.074;5.842;2023-05-23T14:00:47;21.35;102.08
66035;HTU21D;52805;51.074;5.842;2023-05-23T14:03:13;21.43;101.31
66035;HTU21D;52805;51.074;5.842;2023-05-23T14:05:40;21.47;103.37
66035;HTU21D;52805;51.074;5.842;2023-05-23T14:08:06;21.57;102.91
66035;HTU21D;52805;51.074;5.842;2023-05-23T14:10:32;21.61;91.34
66035;HTU21D;52805;51.074;5.842;2023-05-23T14:12:58;21.60;98.87
66035;HTU21D;52805;51.074;5.842;2023-05-23T14:15:25;21.80;101.32
66035;HTU21D;52805;51.074;5.842;2023-05-23T14:17:51;22.06;99.55
66035;HTU21D;52805;51.074;5.842;2023-05-23T14:20:20;22.24;91.15
66035;HTU21D;52805;51.074;5.842;2023-05-23T14:22:47;22.31;98.48
66035;HTU21D;52805;51.074;5.842;2023-05-23T14:25:16;22.36;96.87
66035;HTU21D;52805;51.074;5.842;2023-05-23T14:27:45;22.53;95.10
66035;HTU21D;52805;51.074;5.842;2023-05-23T14:30:11;22.60;89.28
66035;HTU21D;52805;51.074;5.842;2023-05-23T14:32:37;22.53;89.24
66035;HTU21D;52805;51.074;5.842;2023-05-23T14:35:08;22.42;87.06
66035;HTU21D;52805;51.074;5.842;2023-05-23T14:37:34;22.18;78.84
66035;HTU21D;52805;51.074;5.842;2023-05-23T14:39:59;22.02;80.66
66035;HTU21D;52805;51.074;5.842;2023-05-23T14:42:25;22.01;89.19
66035;HTU21D;52805;51.074;5.842;2023-05-23T14:44:54;22.01;79.52
66035;HTU21D;52805;51.074;5.842;2023-05-23T14:47:20;21.87;87.61
66035;HTU21D;52805;51.074;5.842;2023-05-23T14:49:46;21.73;88.26
66035;HTU21D;52805;51.074;5.842;2023-05-23T14:52:12;21.72;84.69
66035;HTU21D;52805;51.074;5.842;2023-05-23T14:54:38;21.82;88.22
66035;HTU21D;52805;51.074;5.842;2023-05-23T14:57:06;21.90;85.67
66035;HTU21D;52805;51.074;5.842;2023-05-23T14:59:33;21.85;85.30
66035;HTU21D;52805;51.074;5.842;2023-05-23T15:01:59;21.88;86.11
66035;HTU21D;52805;51.074;5.842;2023-05-23T15:04:25;21.92;86.61
66035;HTU21D;52805;51.074;5.842;2023-05-23T15:06:51;22.09;87.22
66035;HTU21D;52805;51.074;5.842;2023-05-23T15:09:17;22.18;82.99
66035;HTU21D;52805;51.074;5.842;2023-05-23T15:11:43;22.25;84.90
66035;HTU21D;52805;51.074;5.842;2023-05-23T15:14:11;22.29;81.11
66035;HTU21D;52805;51.074;5.842;2023-05-23T15:16:36;22.03;79.17
66035;HTU21D;52805;51.074;5.842;2023-05-23T15:19:03;21.85;81.62
66035;HTU21D;52805;51.074;5.842;2023-05-23T15:21:29;21.84;70.66
66035;HTU21D;52805;51.074;5.842;2023-05-23T15:23:56;21.84;80.21
66035;HTU21D;52805;51.074;5.842;2023-05-23T15:26:24;21.70;79.87